Lahr Airport EDTL

Flugplatz Daten

Name: Lahr Airport

Ident: EDTL

Lat: 48,36930084

Long: 7,827720165

Platzhöhe: 511 ft

IataCode: LHA

City:

Metar

2021/10/20 12:50
EDTL 201250Z 19013KT CAVOK 20/11 Q1013

Taf

Gewünschte Webcam nicht vorhanden? Dann fügen Sie eine hinzu. Sie wird dann so schnell wie möglich freigeschaltet
Url: Title: